Time;durP1;ratioP1;P1;durP2;ratioP2;P2;SDS_P1;SDS_P2;PMS_P1;PMS_P2;Temp;Humidity;BMP_temperature;BMP_pressure;BME280_temperature;BME280_humidity;BME280_pressure;Samples;Min_cycle;Max_cycle;Signal;HPM_P1;HPM_P2
2022/09/14 00:00:57;;;;;;;2.60;1.47;;;;;;;;;;5094225;28;20437;-73
2022/09/14 00:03:24;;;;;;;1.77;1.50;;;;;;;;;;5093365;28;20456;-72
2022/09/14 00:05:51;;;;;;;2.23;1.87;;;;;;;;;;5094678;28;20448;-73
2022/09/14 00:08:18;;;;;;;2.30;1.70;;;;;;;;;;5093302;28;20472;-72
2022/09/14 00:10:47;;;;;;;2.30;1.40;;;;;;;;;;5094327;28;20476;-72
2022/09/14 00:13:15;;;;;;;1.70;1.60;;;;;;;;;;5093676;28;20911;-72
2022/09/14 00:15:43;;;;;;;1.50;1.40;;;;;;;;;;5094451;28;20437;-72
2022/09/14 00:18:11;;;;;;;1.53;1.43;;;;;;;;;;5094222;28;20487;-72
2022/09/14 00:20:38;;;;;;;2.40;1.40;;;;;;;;;;5093626;28;20463;-72
2022/09/14 00:23:05;;;;;;;1.90;1.80;;;;;;;;;;5093637;28;20448;-72
2022/09/14 00:25:33;;;;;;;1.27;1.17;;;;;;;;;;5093338;28;20951;-72
2022/09/14 00:28:01;;;;;;;1.87;1.60;;;;;;;;;;5094104;28;20445;-72
2022/09/14 00:30:28;;;;;;;1.47;1.20;;;;;;;;;;5085481;28;20486;-72
2022/09/14 00:32:56;;;;;;;1.97;1.53;;;;;;;;;;5092935;28;20865;-72
2022/09/14 00:35:23;;;;;;;1.30;1.20;;;;;;;;;;5092594;28;20548;-72
2022/09/14 00:37:51;;;;;;;2.30;1.43;;;;;;;;;;5093046;28;20928;-72
2022/09/14 00:40:18;;;;;;;1.80;1.57;;;;;;;;;;5093522;28;20449;-72
2022/09/14 00:42:45;;;;;;;1.80;1.17;;;;;;;;;;5092875;28;20452;-72
2022/09/14 00:45:16;;;;;;;1.37;1.27;;;;;;;;;;5093882;28;20457;-72
2022/09/14 00:47:43;;;;;;;1.77;1.30;;;;;;;;;;5093194;28;20452;-72
2022/09/14 00:50:11;;;;;;;1.77;1.30;;;;;;;;;;5093711;28;20477;-73
2022/09/14 00:52:41;;;;;;;1.73;1.20;;;;;;;;;;5091908;28;20453;-72
2022/09/14 00:55:09;;;;;;;1.73;1.30;;;;;;;;;;5093615;28;20449;-72
2022/09/14 00:57:38;;;;;;;1.93;1.73;;;;;;;;;;5092210;28;20460;-72
2022/09/14 01:00:07;;;;;;;1.77;1.63;;;;;;;;;;5093349;28;20461;-72
2022/09/14 01:02:36;;;;;;;1.40;1.30;;;;;;;;;;5091821;28;20453;-73
2022/09/14 01:05:04;;;;;;;2.10;1.30;;;;;;;;;;5092878;28;20959;-72
2022/09/14 01:07:37;;;;;;;1.53;1.43;;;;;;;;;;5091973;28;20453;-72
2022/09/14 01:10:09;;;;;;;2.57;1.37;;;;;;;;;;5085218;28;20599;-72
2022/09/14 01:12:39;;;;;;;1.50;1.20;;;;;;;;;;5091500;28;20932;-73
2022/09/14 01:15:07;;;;;;;2.67;1.43;;;;;;;;;;5092833;28;20791;-72
2022/09/14 01:17:38;;;;;;;2.30;1.07;;;;;;;;;;5092182;28;20722;-72
2022/09/14 01:20:16;;;;;;;1.40;1.20;;;;;;;;;;5092693;28;20452;-72
2022/09/14 01:22:45;;;;;;;1.70;1.47;;;;;;;;;;5092109;28;20444;-72
2022/09/14 01:25:18;;;;;;;1.40;1.20;;;;;;;;;;5091817;28;20989;-72
2022/09/14 01:27:47;;;;;;;1.60;1.40;;;;;;;;;;5092857;28;20483;-72
2022/09/14 01:30:18;;;;;;;2.00;1.67;;;;;;;;;;5092490;28;20484;-67
2022/09/14 01:32:47;;;;;;;2.27;1.53;;;;;;;;;;5091689;28;20442;-67
2022/09/14 01:35:16;;;;;;;1.50;1.00;;;;;;;;;;5092268;28;20459;-67
2022/09/14 01:37:46;;;;;;;7.20;2.37;;;;;;;;;;5092131;28;20803;-67
2022/09/14 01:40:14;;;;;;;2.23;1.10;;;;;;;;;;5092052;28;20453;-68
2022/09/14 01:42:43;;;;;;;3.83;1.93;;;;;;;;;;5092132;28;20540;-68
2022/09/14 01:45:15;;;;;;;3.40;1.40;;;;;;;;;;5089030;28;20453;-67
2022/09/14 01:47:47;;;;;;;2.50;1.20;;;;;;;;;;5086146;28;20445;-68
2022/09/14 01:50:16;;;;;;;4.53;1.00;;;;;;;;;;5090468;28;21064;-68
2022/09/14 01:52:45;;;;;;;3.70;0.97;;;;;;;;;;5091399;28;20448;-68
2022/09/14 01:55:14;;;;;;;1.93;1.60;;;;;;;;;;5092065;28;20452;-68
2022/09/14 01:57:43;;;;;;;2.53;1.30;;;;;;;;;;5091938;28;20461;-68
2022/09/14 02:00:15;;;;;;;3.17;1.30;;;;;;;;;;5092660;28;20449;-68
2022/09/14 02:02:45;;;;;;;1.57;1.13;;;;;;;;;;5089620;28;20510;-68
2022/09/14 02:05:15;;;;;;;4.20;1.60;;;;;;;;;;5092249;28;20518;-67
2022/09/14 02:07:42;;;;;;;4.10;2.10;;;;;;;;;;5091453;28;20448;-68
2022/09/14 02:10:11;;;;;;;3.83;1.50;;;;;;;;;;5092262;28;20456;-67
2022/09/14 02:12:39;;;;;;;4.87;1.77;;;;;;;;;;5085614;28;20448;-68
2022/09/14 02:15:07;;;;;;;3.40;1.90;;;;;;;;;;5091826;28;20456;-67
2022/09/14 02:17:36;;;;;;;6.37;1.90;;;;;;;;;;5090996;28;20821;-68
2022/09/14 02:20:05;;;;;;;3.17;1.67;;;;;;;;;;5091326;28;20444;-68
2022/09/14 02:22:32;;;;;;;3.00;1.67;;;;;;;;;;5090015;28;20452;-68
2022/09/14 02:25:00;;;;;;;5.10;1.97;;;;;;;;;;5091292;28;20445;-68
2022/09/14 02:27:28;;;;;;;3.67;1.80;;;;;;;;;;5091118;28;20480;-68
2022/09/14 02:29:55;;;;;;;3.80;2.10;;;;;;;;;;5091552;28;20527;-68
2022/09/14 02:32:28;;;;;;;1.97;1.70;;;;;;;;;;5089878;28;20990;-68
2022/09/14 02:34:59;;;;;;;2.40;1.87;;;;;;;;;;5091086;28;20453;-67
2022/09/14 02:37:30;;;;;;;2.90;1.30;;;;;;;;;;5090287;28;21005;-68
2022/09/14 02:40:02;;;;;;;2.97;1.80;;;;;;;;;;5091155;28;20472;-68
2022/09/14 02:42:35;;;;;;;2.70;1.57;;;;;;;;;;5089784;28;21011;-68
2022/09/14 02:45:06;;;;;;;4.00;2.17;;;;;;;;;;5091343;28;20441;-68
2022/09/14 02:47:38;;;;;;;2.10;1.90;;;;;;;;;;5089799;28;20441;-66
2022/09/14 02:50:11;;;;;;;4.63;2.07;;;;;;;;;;5078141;28;20803;-67
2022/09/14 02:52:41;;;;;;;3.10;2.20;;;;;;;;;;5090010;28;20445;-67
2022/09/14 02:55:09;;;;;;;2.50;2.10;;;;;;;;;;5091093;28;20455;-67
2022/09/14 02:57:51;;;;;;;3.23;2.20;;;;;;;;;;5090359;28;20448;-67
2022/09/14 03:00:19;;;;;;;2.03;1.63;;;;;;;;;;5089470;28;20445;-67
2022/09/14 03:02:46;;;;;;;3.87;2.60;;;;;;;;;;5090095;28;20436;-67
2022/09/14 03:05:14;;;;;;;3.10;1.97;;;;;;;;;;5091124;28;20548;-68
2022/09/14 03:07:41;;;;;;;3.07;2.40;;;;;;;;;;5090759;28;20505;-67
2022/09/14 03:10:09;;;;;;;4.70;2.43;;;;;;;;;;5090921;28;20823;-67
2022/09/14 03:12:38;;;;;;;2.97;2.63;;;;;;;;;;5083417;28;20818;-67
2022/09/14 03:15:05;;;;;;;2.03;1.50;;;;;;;;;;5090456;28;20464;-67
2022/09/14 03:17:33;;;;;;;3.73;2.73;;;;;;;;;;5090276;28;20456;-67
2022/09/14 03:20:00;;;;;;;3.07;2.53;;;;;;;;;;5091262;28;20445;-67
2022/09/14 03:22:28;;;;;;;3.77;2.13;;;;;;;;;;5091565;28;20449;-66
2022/09/14 03:24:55;;;;;;;2.87;2.20;;;;;;;;;;5094569;28;20457;-67
2022/09/14 03:27:22;;;;;;;2.30;2.10;;;;;;;;;;5094556;28;20473;-67
2022/09/14 03:29:49;;;;;;;2.60;1.87;;;;;;;;;;5095334;28;20575;-67
2022/09/14 03:32:17;;;;;;;2.63;2.20;;;;;;;;;;5095680;28;20480;-67
2022/09/14 03:34:44;;;;;;;3.20;2.10;;;;;;;;;;5095101;28;20467;-67
2022/09/14 03:37:11;;;;;;;5.60;2.37;;;;;;;;;;5090656;28;20475;-67
2022/09/14 03:39:39;;;;;;;4.07;2.40;;;;;;;;;;5089848;28;20968;-67
2022/09/14 03:42:06;;;;;;;2.77;2.20;;;;;;;;;;5090595;28;20452;-66
2022/09/14 03:44:34;;;;;;;2.83;2.03;;;;;;;;;;5090043;28;21033;-67
2022/09/14 03:47:01;;;;;;;3.60;2.60;;;;;;;;;;5090666;28;20457;-67
2022/09/14 03:49:28;;;;;;;2.40;2.10;;;;;;;;;;5089435;28;20452;-67
2022/09/14 03:51:55;;;;;;;2.70;2.10;;;;;;;;;;5090529;28;20476;-67
2022/09/14 03:54:22;;;;;;;4.37;2.53;;;;;;;;;;5089824;28;20436;-67
2022/09/14 03:56:52;;;;;;;2.83;2.20;;;;;;;;;;5090364;28;20441;-67
2022/09/14 03:59:19;;;;;;;2.67;2.13;;;;;;;;;;5089699;28;20929;-67
2022/09/14 04:01:46;;;;;;;2.40;2.20;;;;;;;;;;5090222;28;20452;-67
2022/09/14 04:04:13;;;;;;;4.17;2.80;;;;;;;;;;5090069;28;20467;-67
2022/09/14 04:06:41;;;;;;;2.83;2.20;;;;;;;;;;5090340;28;20459;-67
2022/09/14 04:09:08;;;;;;;3.00;2.67;;;;;;;;;;5089463;28;20467;-67
2022/09/14 04:11:35;;;;;;;2.90;2.40;;;;;;;;;;5089415;28;20534;-67
2022/09/14 04:14:04;;;;;;;3.97;2.87;;;;;;;;;;5093390;28;20447;-67
2022/09/14 04:16:32;;;;;;;3.63;2.10;;;;;;;;;;5092593;28;20444;-67
2022/09/14 04:18:59;;;;;;;3.70;2.43;;;;;;;;;;5093840;28;20452;-67
2022/09/14 04:21:27;;;;;;;2.80;2.00;;;;;;;;;;5093564;28;20448;-67
2022/09/14 04:23:54;;;;;;;5.03;2.20;;;;;;;;;;5092992;28;20448;-68
2022/09/14 04:26:22;;;;;;;2.63;2.43;;;;;;;;;;5086419;28;20550;-67
2022/09/14 04:28:49;;;;;;;3.53;2.60;;;;;;;;;;5092940;28;20452;-68
2022/09/14 04:31:18;;;;;;;2.73;2.43;;;;;;;;;;5092784;28;20995;-67
2022/09/14 04:33:48;;;;;;;3.33;2.90;;;;;;;;;;5093380;28;20452;-67
2022/09/14 04:36:17;;;;;;;2.63;2.37;;;;;;;;;;5089122;28;20520;-67
2022/09/14 04:38:45;;;;;;;2.40;2.20;;;;;;;;;;5093706;28;20449;-67
2022/09/14 04:41:13;;;;;;;3.17;2.63;;;;;;;;;;5092873;28;20453;-68
2022/09/14 04:43:41;;;;;;;3.40;2.43;;;;;;;;;;5092962;28;20441;-68
2022/09/14 04:46:10;;;;;;;4.33;3.83;;;;;;;;;;5093276;28;20808;-69
2022/09/14 04:48:39;;;;;;;3.10;2.40;;;;;;;;;;5092836;28;20445;-68
2022/09/14 04:51:09;;;;;;;4.40;2.90;;;;;;;;;;5092436;28;20461;-67
2022/09/14 04:53:37;;;;;;;3.13;2.67;;;;;;;;;;5092478;28;20452;-66
2022/09/14 04:56:04;;;;;;;5.93;2.60;;;;;;;;;;5092934;28;20453;-67
2022/09/14 04:58:32;;;;;;;7.03;5.30;;;;;;;;;;5092363;28;20441;-70
2022/09/14 05:01:02;;;;;;;4.37;3.97;;;;;;;;;;5092900;28;20441;-69
2022/09/14 05:03:29;;;;;;;4.70;3.10;;;;;;;;;;5092141;28;20445;-69
2022/09/14 05:06:01;;;;;;;2.97;2.50;;;;;;;;;;5092413;28;20468;-66
2022/09/14 05:08:28;;;;;;;4.83;2.97;;;;;;;;;;5091779;28;20480;-68
2022/09/14 05:10:56;;;;;;;3.53;2.63;;;;;;;;;;5092951;28;20472;-69
2022/09/14 05:13:23;;;;;;;2.80;2.50;;;;;;;;;;5092746;28;20448;-69
2022/09/14 05:15:50;;;;;;;3.77;2.60;;;;;;;;;;5092325;28;20935;-67
2022/09/14 05:18:17;;;;;;;3.07;2.77;;;;;;;;;;5092798;28;20441;-69
2022/09/14 05:20:44;;;;;;;4.90;2.83;;;;;;;;;;5093063;28;20445;-68
2022/09/14 05:23:13;;;;;;;3.83;2.57;;;;;;;;;;5092591;28;20464;-68
2022/09/14 05:25:40;;;;;;;3.27;2.97;;;;;;;;;;5091631;28;20813;-68
2022/09/14 05:28:07;;;;;;;3.63;2.83;;;;;;;;;;5092948;28;20466;-68
2022/09/14 05:30:34;;;;;;;2.90;2.43;;;;;;;;;;5092249;28;20696;-69
2022/09/14 05:33:01;;;;;;;5.40;2.70;;;;;;;;;;5092413;28;20995;-68
2022/09/14 05:35:29;;;;;;;4.57;3.00;;;;;;;;;;5091519;28;20452;-68
2022/09/14 05:37:56;;;;;;;5.23;2.57;;;;;;;;;;5092244;28;20452;-69
2022/09/14 05:40:24;;;;;;;3.00;2.70;;;;;;;;;;5092092;28;20448;-68
2022/09/14 05:42:51;;;;;;;4.90;2.50;;;;;;;;;;5092607;28;20460;-68
2022/09/14 05:45:18;;;;;;;3.40;2.73;;;;;;;;;;5091415;28;20455;-68
2022/09/14 05:47:46;;;;;;;4.80;2.70;;;;;;;;;;5092446;28;20455;-69
2022/09/14 05:50:13;;;;;;;3.33;2.73;;;;;;;;;;5092630;28;20459;-68
2022/09/14 05:52:40;;;;;;;3.20;2.90;;;;;;;;;;5091803;28;20476;-68
2022/09/14 05:55:08;;;;;;;2.63;2.07;;;;;;;;;;5091979;28;20452;-68
2022/09/14 05:57:36;;;;;;;3.17;2.63;;;;;;;;;;5091577;28;20463;-68
2022/09/14 06:00:04;;;;;;;4.20;3.80;;;;;;;;;;5092015;28;20455;-68
2022/09/14 06:02:31;;;;;;;3.40;3.00;;;;;;;;;;5091514;28;20440;-68
2022/09/14 06:04:59;;;;;;;3.40;2.60;;;;;;;;;;5091582;28;20457;-68
2022/09/14 06:07:26;;;;;;;4.63;3.87;;;;;;;;;;5091372;28;20471;-68
2022/09/14 06:09:53;;;;;;;4.27;2.70;;;;;;;;;;5092046;28;20448;-69
2022/09/14 06:12:20;;;;;;;4.03;3.67;;;;;;;;;;5091096;28;20479;-69
2022/09/14 06:14:48;;;;;;;3.20;2.90;;;;;;;;;;5092010;28;20487;-69
2022/09/14 06:17:16;;;;;;;3.37;2.57;;;;;;;;;;5090976;28;20452;-68
2022/09/14 06:19:43;;;;;;;3.63;2.90;;;;;;;;;;5092218;28;20459;-68
2022/09/14 06:22:10;;;;;;;5.10;3.20;;;;;;;;;;5091912;28;20460;-68
2022/09/14 06:24:37;;;;;;;6.70;3.30;;;;;;;;;;5090996;28;20455;-69
2022/09/14 06:27:05;;;;;;;4.57;3.53;;;;;;;;;;5091174;28;20482;-68
2022/09/14 06:29:32;;;;;;;3.57;2.73;;;;;;;;;;5091217;28;20449;-68
2022/09/14 06:32:00;;;;;;;6.20;3.30;;;;;;;;;;5091264;28;20487;-69
2022/09/14 06:34:27;;;;;;;3.13;2.83;;;;;;;;;;5090972;28;20459;-69
2022/09/14 06:36:54;;;;;;;3.93;3.00;;;;;;;;;;5090904;28;20452;-68
2022/09/14 06:39:22;;;;;;;5.83;3.37;;;;;;;;;;5091031;28;20453;-69
2022/09/14 06:41:50;;;;;;;6.70;3.20;;;;;;;;;;5091470;28;20535;-69
2022/09/14 06:44:17;;;;;;;5.30;3.10;;;;;;;;;;5091119;28;20489;-69
2022/09/14 06:46:44;;;;;;;3.40;3.07;;;;;;;;;;5077714;28;20449;-69
2022/09/14 06:49:19;;;;;;;3.33;3.03;;;;;;;;;;5091320;28;20444;-69
2022/09/14 06:51:46;;;;;;;3.23;2.87;;;;;;;;;;5091644;28;20471;-69
2022/09/14 06:54:15;;;;;;;4.13;3.20;;;;;;;;;;5091329;28;20445;-69
2022/09/14 06:56:42;;;;;;;3.30;2.97;;;;;;;;;;5090802;28;20498;-68
2022/09/14 06:59:10;;;;;;;5.33;3.00;;;;;;;;;;5091385;28;20452;-69
2022/09/14 07:01:37;;;;;;;3.60;2.27;;;;;;;;;;5090908;28;20441;-68
2022/09/14 07:04:05;;;;;;;4.23;3.47;;;;;;;;;;5091220;28;20741;-68
2022/09/14 07:06:39;;;;;;;5.73;3.07;;;;;;;;;;5090384;28;20471;-68
2022/09/14 07:09:06;;;;;;;3.83;3.03;;;;;;;;;;5094043;28;20463;-69
2022/09/14 07:11:34;;;;;;;4.00;3.13;;;;;;;;;;5100081;28;20441;-69
2022/09/14 07:14:01;;;;;;;2.30;2.03;;;;;;;;;;5102673;28;20566;-68
2022/09/14 07:16:29;;;;;;;4.00;2.87;;;;;;;;;;5101813;28;20472;-67
2022/09/14 07:18:57;;;;;;;2.70;2.47;;;;;;;;;;5102794;28;20476;-68
2022/09/14 07:21:25;;;;;;;4.03;2.63;;;;;;;;;;5102365;28;20455;-68
2022/09/14 07:23:54;;;;;;;3.43;3.00;;;;;;;;;;5101437;28;20445;-69
2022/09/14 07:26:22;;;;;;;2.83;2.27;;;;;;;;;;5091019;28;20825;-69
2022/09/14 07:28:51;;;;;;;2.27;2.07;;;;;;;;;;5091391;28;20448;-70
2022/09/14 07:31:20;;;;;;;2.73;2.30;;;;;;;;;;5090577;28;20449;-69
2022/09/14 07:33:48;;;;;;;6.97;2.20;;;;;;;;;;5078036;28;20480;-69
2022/09/14 07:36:15;;;;;;;3.03;2.40;;;;;;;;;;5089914;28;20448;-69
2022/09/14 07:38:42;;;;;;;2.40;2.10;;;;;;;;;;5091182;28;20810;-70
2022/09/14 07:41:11;;;;;;;3.50;2.73;;;;;;;;;;5091327;28;20813;-70
2022/09/14 07:43:38;;;;;;;3.60;2.33;;;;;;;;;;5090050;28;20543;-69
2022/09/14 07:46:06;;;;;;;2.00;1.90;;;;;;;;;;5090378;28;20453;-70
2022/09/14 07:48:33;;;;;;;2.60;2.40;;;;;;;;;;5092923;28;20951;-69
2022/09/14 07:51:01;;;;;;;2.33;2.13;;;;;;;;;;5094562;28;20532;-70
2022/09/14 07:53:28;;;;;;;2.83;2.53;;;;;;;;;;5093988;28;21010;-69
2022/09/14 07:55:58;;;;;;;3.53;2.10;;;;;;;;;;5094326;28;20449;-70
2022/09/14 07:58:27;;;;;;;2.90;2.00;;;;;;;;;;5094265;28;20444;-70
2022/09/14 08:00:58;;;;;;;3.10;2.03;;;;;;;;;;5094591;28;20436;-70
2022/09/14 08:03:25;;;;;;;2.50;2.30;;;;;;;;;;5094216;28;20445;-70
2022/09/14 08:06:00;;;;;;;3.20;2.33;;;24.10;1.00;;;;;;5094190;28;20464;-70
2022/09/14 08:08:28;;;;;;;2.83;1.70;;;;;;;;;;5093866;28;20443;-71
2022/09/14 08:10:57;;;;;;;2.30;2.10;;;;;;;;;;5094157;28;20448;-70
2022/09/14 08:13:24;;;;;;;2.73;2.53;;;;;;;;;;5093874;28;20486;-70
2022/09/14 08:15:53;;;;;;;2.20;1.90;;;;;;;;;;5094073;28;20461;-71
2022/09/14 08:18:20;;;;;;;2.40;1.93;;;;;;;;;;5093495;28;20460;-71
2022/09/14 08:20:46;;;;;;;2.57;1.77;;;22.00;99.90;;;;;;5094388;28;20807;-71
2022/09/14 08:23:14;;;;;;;4.03;2.20;;;22.50;99.90;;;;;;5094328;28;20448;-71
2022/09/14 08:25:41;;;;;;;3.30;1.87;;;22.60;99.90;;;;;;5093852;28;20536;-70
2022/09/14 08:28:07;;;;;;;4.90;2.30;;;22.60;99.90;;;;;;5093909;28;20527;-71
2022/09/14 08:30:34;;;;;;;2.00;1.80;;;22.70;99.90;;;;;;5093804;28;20965;-71
2022/09/14 08:33:02;;;;;;;3.40;2.00;;;22.90;99.90;;;;;;5093773;28;20480;-71
2022/09/14 08:35:29;;;;;;;2.20;1.47;;;22.90;99.90;;;;;;5093252;28;20453;-71
2022/09/14 08:37:56;;;;;;;3.77;2.00;;;22.80;99.90;;;;;;5093855;28;20517;-72
2022/09/14 08:40:23;;;;;;;2.30;2.10;;;23.00;99.90;;;;;;5092962;28;20455;-71
2022/09/14 08:42:52;;;;;;;3.77;1.77;;;22.90;99.90;;;;;;5093793;28;20487;-71
2022/09/14 08:45:21;;;;;;;2.40;2.20;;;22.80;99.90;;;;;;5093132;28;20471;-71
2022/09/14 08:47:48;;;;;;;1.97;1.67;;;22.60;99.90;;;;;;5093624;28;20476;-71
2022/09/14 08:50:18;;;;;;;1.90;1.70;;;22.60;99.90;;;;;;5093158;28;20445;-70
2022/09/14 08:52:47;;;;;;;3.30;1.83;;;22.70;99.90;;;;;;5093063;28;20512;-71
2022/09/14 08:55:28;;;;;;;3.40;2.00;;;22.80;99.90;;;;;;5093283;28;20460;-71
2022/09/14 08:58:07;;;;;;;3.80;2.00;;;23.00;99.90;;;;;;5093150;28;20444;-72
2022/09/14 09:00:41;;;;;;;2.83;2.10;;;23.00;99.90;;;;;;5093097;28;20729;-71
2022/09/14 09:03:30;;;;;;;2.10;1.93;;;23.00;99.90;;;;;;5093620;28;20453;-73
2022/09/14 09:06:08;;;;;;;2.67;1.70;;;22.90;99.90;;;;;;5093376;28;20866;-72
2022/09/14 09:08:42;;;;;;;5.67;2.10;;;23.00;99.90;;;;;;5092713;28;20456;-71
2022/09/14 09:11:16;;;;;;;1.93;1.77;;;23.10;99.90;;;;;;5093412;28;20451;-72
2022/09/14 09:13:45;;;;;;;1.90;1.60;;;23.10;99.90;;;;;;5093113;28;20468;-73
2022/09/14 09:16:16;;;;;;;3.17;2.10;;;23.30;99.90;;;;;;5093249;28;20445;-72
2022/09/14 09:18:46;;;;;;;2.63;1.73;;;23.40;99.90;;;;;;5093755;28;20449;-73
2022/09/14 09:21:17;;;;;;;1.93;1.70;;;23.40;99.90;;;;;;5093794;28;20444;-73
2022/09/14 09:23:45;;;;;;;3.93;1.80;;;23.60;99.90;;;;;;5092911;28;20440;-73
2022/09/14 09:26:20;;;;;;;2.87;1.70;;;23.60;99.90;;;;;;5092767;28;20464;-73
2022/09/14 09:28:49;;;;;;;2.63;2.03;;;23.80;87.50;;;;;;5093147;28;20437;-73
2022/09/14 09:31:18;;;;;;;2.00;1.90;;;24.00;19.90;;;;;;5092045;28;20854;-74
2022/09/14 09:33:48;;;;;;;2.17;1.80;;;24.10;1.00;;;;;;5092827;28;20925;-74
2022/09/14 09:36:17;;;;;;;2.07;1.73;;;24.10;1.00;;;;;;5091825;28;20452;-72
2022/09/14 09:38:44;;;;;;;1.47;1.33;;;24.30;1.00;;;;;;5092979;28;20536;-75
2022/09/14 09:41:15;;;;;;;2.77;1.60;;;24.30;99.90;;;;;;5093182;28;20855;-75
2022/09/14 09:43:59;;;;;;;2.53;1.83;;;24.30;99.90;;;;;;5093067;28;20455;-75
2022/09/14 09:46:26;;;;;;;1.77;1.60;;;24.30;99.90;;;;;;5092125;28;20440;-76
2022/09/14 09:48:54;;;;;;;1.47;1.37;;;24.50;99.90;;;;;;5093019;28;20527;-77
2022/09/14 09:51:28;;;;;;;2.30;1.63;;;24.50;1.00;;;;;;5092229;28;20445;-75
2022/09/14 09:53:58;;;;;;;4.70;2.00;;;24.70;99.90;;;;;;5092744;28;20478;-77
2022/09/14 09:56:28;;;;;;;2.20;1.90;;;24.90;99.90;;;;;;5092166;28;20448;-78
2022/09/14 09:58:55;;;;;;;1.50;1.40;;;24.90;1.00;;;;;;5092802;28;20447;-77
2022/09/14 10:01:27;;;;;;;1.97;1.47;;;25.00;99.90;;;;;;5092164;28;20535;-78
2022/09/14 10:04:05;;;;;;;1.83;1.73;;;25.00;99.90;;;;;;5092346;28;20998;-77
2022/09/14 10:06:42;;;;;;;1.47;1.37;;;25.00;1.00;;;;;;5091973;28;20436;-78
2022/09/14 10:09:14;;;;;;;2.10;1.70;;;24.70;1.00;;;;;;5092857;28;20456;-79
2022/09/14 10:11:41;;;;;;;1.57;1.47;;;24.80;99.90;;;;;;5092428;28;20455;-79
2022/09/14 10:14:23;;;;;;;1.50;1.40;;;24.70;1.00;;;;;;5092743;28;20485;-79
2022/09/14 10:16:50;;;;;;;1.63;1.53;;;25.10;99.90;;;;;;5091888;28;20950;-78
2022/09/14 10:19:21;;;;;;;4.70;1.73;;;25.30;41.50;;;;;;5092239;28;20449;-77
2022/09/14 10:22:05;;;;;;;1.73;1.63;;;25.20;1.00;;;;;;5092717;28;20449;-78
2022/09/14 10:24:34;;;;;;;2.37;1.77;;;25.30;1.00;;;;;;5091654;28;20467;-78
2022/09/14 10:27:01;;;;;;;1.80;1.60;;;25.20;1.00;;;;;;5092151;28;20480;-78
2022/09/14 10:29:37;;;;;;;1.83;1.40;;;24.90;1.00;;;;;;5091533;28;20928;-78
2022/09/14 10:32:16;;;;;;;1.73;1.30;;;24.80;1.00;;;;;;5092488;28;20456;-78
2022/09/14 10:34:43;;;;;;;3.87;2.00;;;24.90;77.70;;;;;;5092203;28;20500;-78
2022/09/14 10:37:26;;;;;;;1.90;1.60;;;25.10;1.00;;;;;;5092479;28;20448;-78
2022/09/14 10:40:09;;;;;;;1.80;1.30;;;25.30;1.00;;;;;;5091975;28;20520;-78
2022/09/14 10:42:41;;;;;;;2.30;1.80;;;25.50;9.50;;;;;;5091632;28;20451;-78
2022/09/14 10:45:22;;;;;;;3.60;1.93;;;25.70;99.90;;;;;;5078550;28;20445;-79
2022/09/14 10:48:06;;;;;;;1.90;1.70;;;25.60;99.90;;;;;;5092455;28;20887;-78
2022/09/14 10:50:48;;;;;;;2.13;1.30;;;25.80;53.60;;;;;;5092117;28;20518;-79
2022/09/14 10:53:31;;;;;;;2.60;1.53;;;25.60;99.90;;;;;;5085912;28;20469;-73
2022/09/14 10:56:02;;;;;;;2.00;1.80;;;25.60;99.90;;;;;;5103413;28;20456;-79
2022/09/14 10:58:44;;;;;;;1.97;1.60;;;25.30;1.00;;;;;;5101543;28;20448;-78
2022/09/14 11:01:23;;;;;;;2.07;1.87;;;25.60;88.00;;;;;;5105229;28;20451;-78
2022/09/14 11:04:00;;;;;;;2.80;1.50;;;25.50;99.90;;;;;;5105733;28;20455;-77
2022/09/14 11:06:40;;;;;;;4.13;1.83;;;25.50;99.90;;;;;;5107949;28;20447;-76
2022/09/14 11:09:17;;;;;;;2.90;1.70;;;25.70;68.80;;;;;;5110787;28;20480;-78
2022/09/14 11:11:52;;;;;;;1.60;1.50;;;25.80;1.00;;;;;;5112944;28;20436;-77
2022/09/14 11:14:43;;;;;;;1.87;1.60;;;25.70;96.20;;;;;;5097452;28;20554;-78
2022/09/14 11:17:25;;;;;;;1.77;1.50;;;25.50;99.90;;;;;;5097413;28;20453;-78
2022/09/14 11:20:00;;;;;;;2.20;1.87;;;25.70;1.00;;;;;;5095419;28;20437;-79
2022/09/14 11:22:35;;;;;;;5.03;1.90;;;26.00;1.00;;;;;;5079913;28;20454;-78
2022/09/14 11:25:10;;;;;;;2.00;1.80;;;26.10;99.90;;;;;;5095518;28;20460;-79
2022/09/14 11:27:40;;;;;;;2.50;1.83;;;26.10;69.10;;;;;;5095258;28;20480;-78
2022/09/14 11:30:14;;;;;;;1.50;1.20;;;26.00;1.00;;;;;;5095980;28;20890;-78
2022/09/14 11:32:45;;;;;;;2.60;1.60;;;26.40;1.00;;;;;;5095934;28;20486;-79
2022/09/14 11:35:17;;;;;;;2.53;2.33;;;26.40;99.90;;;;;;5095127;28;20503;-78
2022/09/14 11:37:48;;;;;;;2.00;1.80;;;26.30;99.90;;;;;;5095801;28;20801;-78
2022/09/14 11:40:20;;;;;;;2.40;1.70;;;;;;;;;;5081751;28;20449;-76
2022/09/14 11:42:51;;;;;;;2.13;1.63;;;;;;;;;;5095293;28;20444;-78
2022/09/14 11:45:21;;;;;;;1.83;1.73;;;;;;;;;;5094301;28;20959;-78
2022/09/14 11:47:53;;;;;;;1.60;1.27;;;;;;;;;;5095633;28;20471;-79
2022/09/14 11:50:21;;;;;;;1.83;1.23;;;;;;;;;;5094638;28;20472;-78
2022/09/14 11:52:49;;;;;;;1.50;1.40;;;;;;;;;;5094661;28;20452;-78
2022/09/14 11:55:18;;;;;;;2.30;2.10;;;;;;;;;;5094039;28;20484;-78
2022/09/14 11:57:46;;;;;;;2.83;1.53;;;;;;;;;;5094548;28;20444;-77
2022/09/14 12:00:32;;;;;;;4.67;1.60;;;;;;;;;;5095065;28;20444;-79
2022/09/14 12:03:13;;;;;;;2.60;1.50;;;;;;;;;;5081964;28;20498;-78
2022/09/14 12:05:42;;;;;;;2.10;1.23;;;;;;;;;;5094265;28;20455;-79
2022/09/14 12:08:27;;;;;;;8.20;1.87;;;;;;;;;;5095275;28;20501;-78
2022/09/14 12:11:03;;;;;;;2.10;1.60;;;;;;;;;;5094738;28;20454;-78
2022/09/14 12:13:31;;;;;;;2.20;1.50;;;;;;;;;;5094339;28;20475;-77
2022/09/14 12:16:03;;;;;;;2.37;1.70;;;;;;;;;;5093881;28;20449;-78
2022/09/14 12:18:30;;;;;;;1.70;1.47;;;;;;;;;;5094108;28;20444;-77
2022/09/14 12:21:02;;;;;;;2.07;1.77;;;;;;;;;;5094452;28;20449;-78
2022/09/14 12:23:30;;;;;;;2.17;1.80;;;;;;;;;;5094127;28;20448;-78
2022/09/14 12:26:13;;;;;;;1.10;1.00;;;;;;;;;;5093669;28;20551;-78
2022/09/14 12:28:46;;;;;;;2.60;2.10;;;;;;;;;;5064710;28;20453;-78
2022/09/14 12:31:31;;;;;;;2.23;1.70;;;;;;;;;;5094756;28;20463;-78
2022/09/14 12:34:25;;;;;;;2.50;1.97;;;;;;;;;;5081783;28;20556;-78
2022/09/14 12:37:01;;;;;;;1.90;1.40;;;;;;;;;;5094362;28;20803;-78
2022/09/14 12:39:29;;;;;;;1.70;1.40;;;;;;;;;;5093443;28;20535;-78
2022/09/14 12:42:05;;;;;;;2.00;1.80;;;;;;;;;;5093968;28;20928;-78
2022/09/14 12:44:35;;;;;;;2.60;1.53;;;;;;;;;;5093145;28;20444;-77
2022/09/14 12:47:20;;;;;;;1.90;1.60;;;;;;;;;;5094238;28;20459;-77
2022/09/14 12:49:48;;;;;;;1.67;1.50;;;;;;;;;;5093659;28;20459;-77
2022/09/14 12:52:29;;;;;;;2.53;1.83;;;;;;;;;;5093048;28;20930;-73
2022/09/14 12:55:03;;;;;;;2.90;1.80;;;;;;;;;;5080795;28;20472;-72
2022/09/14 12:57:33;;;;;;;2.80;1.80;;;;;;;;;;5092934;28;20447;-71
2022/09/14 13:00:06;;;;;;;1.30;1.20;;;;;;;;;;5093423;28;20444;-71
2022/09/14 13:02:49;;;;;;;1.93;1.60;;;;;;;;;;5092636;28;20936;-71
2022/09/14 13:05:17;;;;;;;3.37;1.50;;;;;;;;;;5092618;28;20459;-71
2022/09/14 13:07:45;;;;;;;1.70;1.60;;;;;;;;;;5093411;28;20536;-71
2022/09/14 13:10:17;;;;;;;2.00;1.80;;;;;;;;;;5093278;28;20452;-71
2022/09/14 13:12:45;;;;;;;2.40;2.00;;;;;;;;;;5093641;28;20441;-71
2022/09/14 13:15:18;;;;;;;2.60;2.10;;;;;;;;;;5092909;28;20584;-71
2022/09/14 13:18:00;;;;;;;3.00;1.63;;;;;;;;;;5093349;28;20441;-71
2022/09/14 13:20:27;;;;;;;2.90;2.00;;;;;;;;;;5088887;28;20457;-71
2022/09/14 13:22:54;;;;;;;2.40;1.97;;;;;;;;;;5092679;28;20514;-71
2022/09/14 13:25:31;;;;;;;2.03;1.83;;;;;;;;;;5091809;28;20456;-71
2022/09/14 13:27:59;;;;;;;4.10;1.80;;;;;;;;;;5093126;28;20533;-70
2022/09/14 13:30:29;;;;;;;2.97;1.80;;;;;;;;;;5091941;28;20456;-70
2022/09/14 13:32:57;;;;;;;3.27;2.00;;;;;;;;;;5092790;28;20451;-70
2022/09/14 13:35:35;;;;;;;3.20;1.90;;;;;;;;;;5091769;28;20496;-70
2022/09/14 13:38:08;;;;;;;7.20;1.70;;;;;;;;;;5092774;28;20448;-70
2022/09/14 13:40:35;;;;;;;2.93;1.90;;;;;;;;;;5091874;28;20448;-71
2022/09/14 13:43:02;;;;;;;1.63;1.40;;;;;;;;;;5092668;28;20821;-70
2022/09/14 13:45:31;;;;;;;2.00;1.30;;;;;;;;;;5090904;28;20449;-70
2022/09/14 13:47:58;;;;;;;2.73;1.23;;;;;;;;;;5092527;28;20444;-70
2022/09/14 13:50:26;;;;;;;2.67;2.23;;;;;;;;;;5091691;28;20476;-70
2022/09/14 13:52:53;;;;;;;1.83;1.50;;;;;;;;;;5092144;28;20449;-69
2022/09/14 13:55:23;;;;;;;1.67;1.10;;;;;;;;;;5091404;28;20486;-70
2022/09/14 13:58:06;;;;;;;1.57;1.10;;;;;;;;;;5092346;28;20445;-70
2022/09/14 14:00:46;;;;;;;2.23;1.50;;;;;;;;;;5091532;28;20454;-70
2022/09/14 14:03:21;;;;;;;1.60;1.33;;;;;;;;;;5092024;28;20452;-70
2022/09/14 14:05:48;;;;;;;1.83;1.50;;;;;;;;;;5091897;28;20468;-71
2022/09/14 14:08:27;;;;;;;1.30;1.00;;;;;;;;;;5091555;28;20448;-70
2022/09/14 14:10:54;;;;;;;2.03;1.33;;;;;;;;;;5091514;28;20475;-70
2022/09/14 14:13:25;;;;;;;1.67;1.37;;;;;;;;;;5091192;28;20955;-70
2022/09/14 14:15:54;;;;;;;1.20;1.10;;;;;;;;;;5091646;28;20551;-71
2022/09/14 14:18:31;;;;;;;1.47;1.00;;;;;;;;;;5091222;28;20448;-71
2022/09/14 14:21:04;;;;;;;1.97;1.43;;;;;;;;;;5079774;28;20445;-70
2022/09/14 14:23:31;;;;;;;1.87;1.30;;;;;;;;;;5091538;28;20490;-71
2022/09/14 14:26:07;;;;;;;1.50;1.10;;;;;;;;;;5091124;28;20837;-71
2022/09/14 14:28:34;;;;;;;2.03;1.83;;;;;;;;;;5091390;28;20466;-70
2022/09/14 14:31:03;;;;;;;2.23;1.20;;;;;;;;;;5091874;28;20449;-70